Latest Weather Observations for Cape Moreton

IDQ60901

Issued at 10:51 am EST Friday 28 July 2017 (issued every 10 minutes, with the page automatically refreshed every 10 minutes)

About weather observations | Map of Brisbane area stations | Latest observations for Brisbane area | Other Formats
Station Details ID: 040043 Name: CAPE MORETON LIGHTHOUSE Lat: -27.03 Lon: 153.47 Height: 99.9 m
Data from the previous 72 hours. | See also: Recent months at Cape Moreton
Date/Time
EST
Temp
°C
App
Temp
°C
Dew
Point
°C
Rel
Hum
%
Delta-T
°C
Wind Press
QNH
hPa
Press
MSL
hPa
Rain since
9am
mm
Dir  Spd
km/h
Gust
km/h
Spd
kts
Gust
kts
28/10:30am 19.6 17.3 11.6 60 4.4 WNW 15 19 8 10 1023.3 1023.1 0.0
28/10:00am 20.2 18.4 12.2 60 4.5 WNW 13 19 7 10 1023.5 1023.3 0.0
28/09:30am 20.2 18.9 11.4 57 4.9 NW 9 15 5 8 1023.5 1023.3 0.0
28/09:00am 20.1 18.9 11.6 58 4.7 NW 9 15 5 8 1023.7 1023.5 0.0
28/08:30am 18.2 18.2 11.3 64 3.8 W 2 9 1 5 1023.7 1023.5 0.0
28/08:00am 17.2 15.3 10.6 65 3.5 W 11 13 6 7 1023.7 1023.5 0.0
28/07:30am 16.3 13.6 10.4 68 3.1 WSW 15 17 8 9 1023.8 1023.6 0.0
28/07:00am 16.0 12.5 10.3 69 3.0 W 19 19 10 10 1023.5 1023.3 0.0
28/06:30am 17.0 15.7 9.9 63 3.8 NNW 7 9 4 5 1023.1 1022.9 0.0
28/06:00am 16.9 15.8 10.1 64 3.6 N 6 7 3 4 1022.8 1022.7 0.0
28/05:30am 17.1 16.3 9.8 62 3.9 NE 4 7 2 4 1022.5 1022.4 0.0
28/05:00am 17.3 17.3 9.7 61 4.0 CALM 0 4 0 2 1022.8 1022.7 0.0
28/04:30am 16.8 14.9 9.2 61 4.0 SSW 9 11 5 6 1023.3 1023.1 0.0
28/04:00am 16.9 14.5 8.8 59 4.2 SSW 11 11 6 6 1023.3 1023.1 0.0
28/03:30am 18.2 18.1 9.3 56 4.7 CALM 0 0 0 0 1023.2 1023.0 0.0
28/03:00am 18.2 16.7 9.3 56 4.7 E 7 9 4 5 1023.1 1022.9 0.0
28/02:30am 18.1 16.3 9.5 57 4.5 E 9 11 5 6 1023.2 1023.0 0.0
28/02:00am 18.0 15.9 9.6 58 4.4 E 11 13 6 7 1023.5 1023.3 0.0
28/01:30am 17.8 15.3 8.4 54 4.9 E 11 13 6 7 1023.5 1023.3 0.0
28/01:00am 17.9 15.1 8.5 54 4.8 ESE 13 15 7 8 1023.8 1023.6 0.0
28/12:30am 18.1 15.0 8.9 55 4.8 ESE 15 17 8 9 1024.0 1023.8 0.0
28/12:00am 18.3 14.9 9.1 55 4.8 E 17 20 9 11 1024.0 1023.8 0.0
 
Date/Time
EST
Temp
°C
App
Temp
°C
Dew
Point
°C
Rel
Hum
%
Delta-T
°C
Wind Press
QNH
hPa
Press
MSL
hPa
Rain since
9am
mm
Dir  Spd
km/h
Gust
km/h
Spd
kts
Gust
kts
27/11:30pm 18.1 14.8 9.5 57 4.5 E 17 20 9 11 1023.8 1023.6 0.0
27/11:00pm 18.4 14.6 9.7 57 4.6 E 20 24 11 13 1023.8 1023.6 0.0
27/10:30pm 18.6 14.9 9.4 55 4.9 E 19 22 10 12 1024.0 1023.8 0.0
27/10:00pm 18.3 14.5 9.9 58 4.5 ESE 20 24 11 13 1024.0 1023.8 0.0
27/09:30pm 18.4 14.7 10.0 58 4.5 ESE 20 26 11 14 1023.9 1023.7 0.0
27/09:00pm 18.4 14.1 9.5 56 4.7 E 22 26 12 14 1023.9 1023.7 0.0
27/08:30pm 18.5 13.6 10.1 58 4.5 E 26 30 14 16 1023.6 1023.4 0.0
27/08:00pm 18.5 14.1 10.3 59 4.4 E 24 28 13 15 1023.7 1023.5 0.0
27/07:30pm 18.6 14.3 10.9 61 4.2 ESE 24 28 13 15 1023.7 1023.5 0.0
27/07:00pm 18.7 13.4 11.3 62 4.0 ESE 30 35 16 19 1023.4 1023.2 0.0
27/06:30pm 18.6 13.3 11.2 62 4.0 ESE 30 37 16 20 1023.2 1023.0 0.0
27/06:00pm 18.7 13.0 11.3 62 4.0 ESE 32 37 17 20 1022.6 1022.5 0.0
27/05:30pm 18.6 13.0 11.4 63 4.0 ESE 32 37 17 20 1022.4 1022.3 0.0
27/05:00pm 18.9 13.2 11.7 63 4.0 ESE 33 39 18 21 1022.1 1022.0 0.0
27/04:30pm 19.2 13.8 12.2 64 3.9 SE 32 39 17 21 1022.1 1022.0 0.0
27/04:00pm 19.0 13.9 13.0 68 3.4 SE 32 39 17 21 1021.8 1021.7 0.0
27/03:30pm 19.1 13.4 14.1 73 2.9 SE 37 43 20 23 1021.8 1021.7 0.0
27/03:00pm 19.2 14.3 13.8 71 3.1 SE 32 39 17 21 1021.5 1021.4 0.0
27/02:30pm 19.3 14.8 13.7 70 3.2 SE 30 39 16 21 1021.7 1021.6 0.0
27/02:00pm 19.6 14.6 13.5 68 3.5 SE 32 37 17 20 1021.5 1021.4 0.0
27/01:30pm 19.7 14.9 12.9 65 3.9 SE 30 35 16 19 1021.6 1021.5 0.0
27/01:00pm 20.2 15.2 12.2 60 4.5 SE 30 33 16 18 1021.9 1021.8 0.0
27/12:30pm 20.0 14.8 11.5 58 4.7 SE 30 35 16 19 1022.3 1022.2 0.0
27/12:00pm 20.0 14.3 11.0 56 4.9 SE 32 37 17 20 1023.1 1022.9 0.0
27/11:30am 20.0 14.5 10.4 54 5.2 SE 30 39 16 21 1023.4 1023.2 0.0
27/11:00am 20.1 15.4 10.8 55 5.1 SSE 26 39 14 21 1023.5 1023.3 0.0
27/10:30am 19.7 15.0 10.7 56 4.9 SSE 26 32 14 17 1023.7 1023.5 0.0
27/10:00am 19.7 15.4 10.7 56 4.9 S 24 32 13 17 1023.6 1023.4 0.0
27/09:30am 19.6 15.0 11.1 58 4.7 S 26 32 14 17 1023.4 1023.2 0.0
27/09:00am 19.4 14.4 10.9 58 4.6 S 28 37 15 20 1023.1 1022.9 0.0
27/08:30am 19.1 13.6 9.0 52 5.3 S 28 33 15 18 1022.9 1022.8 0.0
27/08:00am 18.1 13.3 8.7 54 4.9 S 24 33 13 18 1022.8 1022.7 0.0
27/07:30am 17.5 11.8 3.0 38 6.7 SW 22 24 12 13 1022.1 1022.0 0.0
27/07:00am 18.6 12.4 2.0 33 7.6 SW 24 28 13 15 1021.6 1021.5 0.0
27/06:30am 17.9 11.7 2.2 35 7.2 SW 24 28 13 15 1021.4 1021.3 0.0
27/06:00am 17.1 13.1 6.6 50 5.2 SW 17 20 9 11 1021.2 1021.1 0.0
27/05:30am 17.8 13.8 6.7 48 5.5 SSW 17 19 9 10 1020.8 1020.7 0.0
27/05:00am 18.3 12.1 2.2 34 7.3 WSW 24 28 13 15 1020.4 1020.3 0.0
27/04:30am 18.7 12.9 2.5 34 7.5 W 22 26 12 14 1020.2 1020.1 0.0
27/04:00am 17.3 11.2 4.6 43 6.0 W 26 30 14 16 1020.1 1020.0 0.0
27/03:30am 17.4 11.4 5.4 45 5.8 W 26 32 14 17 1020.0 1019.9 0.0
27/03:00am 17.2 11.6 7.0 51 5.1 W 26 30 14 16 1020.2 1020.1 0.0
27/02:30am 17.3 12.0 9.7 61 4.0 W 28 32 15 17 1020.3 1020.2 0.0
27/02:00am 17.9 14.2 12.8 72 2.9 W 24 30 13 16 1020.2 1020.1 0.0
27/01:30am 17.9 13.8 11.5 66 3.5 W 24 28 13 15 1020.2 1020.1 0.0
27/01:00am 18.0 14.8 13.1 73 2.8 WNW 22 26 12 14 1020.4 1020.3 0.0
27/12:30am 18.3 14.8 12.1 67 3.4 WNW 22 24 12 13 1020.6 1020.5 0.0
27/12:00am 18.3 15.6 13.4 73 2.8 WNW 20 24 11 13 1020.8 1020.7 0.0
 
Date/Time
EST
Temp
°C
App
Temp
°C
Dew
Point
°C
Rel
Hum
%
Delta-T
°C
Wind Press
QNH
hPa
Press
MSL
hPa
Rain since
9am
mm
Dir  Spd
km/h
Gust
km/h
Spd
kts
Gust
kts
26/11:30pm 18.6 15.3 11.7 64 3.8 WNW 20 26 11 14 1020.9 1020.8 0.0
26/11:00pm 18.9 15.5 12.4 66 3.6 WNW 22 28 12 15 1021.0 1020.9 0.0
26/10:30pm 18.6 15.7 13.0 70 3.2 WNW 20 26 11 14 1021.0 1020.9 0.0
26/10:00pm 18.7 16.8 14.2 75 2.6 NW 17 24 9 13 1020.9 1020.8 0.0
26/09:30pm 19.3 17.1 14.8 75 2.6 NW 20 26 11 14 1020.6 1020.5 0.0
26/09:00pm 19.0 16.0 13.6 71 3.1 NW 22 30 12 16 1020.5 1020.4 0.0
26/08:30pm 19.2 16.2 13.8 71 3.1 NW 22 28 12 15 1020.5 1020.4 0.0
26/08:00pm 19.0 16.3 13.4 70 3.2 NW 20 28 11 15 1020.5 1020.4 0.0
26/07:30pm 19.0 16.0 12.7 67 3.5 NW 20 24 11 13 1020.4 1020.3 0.0
26/07:00pm 18.9 16.2 12.9 68 3.4 NNW 19 20 10 11 1020.5 1020.4 0.0
26/06:30pm 18.8 15.7 11.6 63 4.0 NNW 19 22 10 12 1020.3 1020.2 0.0
26/06:00pm 18.7 15.7 10.5 59 4.4 NNW 17 20 9 11 1020.2 1020.1 0.0
26/05:30pm 18.7 15.6 10.3 58 4.5 NNW 17 20 9 11 1020.0 1019.9 0.0
26/05:00pm 19.2 15.9 9.7 54 5.1 NNW 17 19 9 10 1020.0 1019.9 0.0
26/04:30pm 19.8 17.0 8.5 48 5.9 NNW 13 15 7 8 1019.9 1019.8 0.0
26/04:00pm 20.2 17.4 8.5 47 6.1 NNW 13 17 7 9 1019.8 1019.7 0.0
26/03:30pm 20.1 17.5 7.8 45 6.4 NW 11 15 6 8 1019.5 1019.4 0.0
26/03:00pm 20.9 18.5 6.8 40 7.2 WNW 9 13 5 7 1019.5 1019.4 0.0
26/02:30pm 20.3 17.1 7.0 42 6.8 WNW 13 17 7 9 1019.6 1019.5 0.0
26/02:00pm 20.7 17.3 5.9 38 7.4 WNW 13 19 7 10 1019.8 1019.7 0.0
26/01:30pm 20.6 16.4 5.8 38 7.4 W 17 22 9 12 1020.2 1020.1 0.0
26/01:00pm 20.4 16.4 4.8 36 7.6 W 15 22 8 12 1020.4 1020.3 0.0
26/12:30pm 19.4 16.6 8.4 49 5.7 WNW 13 20 7 11 1020.9 1020.8 0.0
26/12:00pm 19.4 15.9 8.7 50 5.6 WNW 17 20 9 11 1021.4 1021.3 0.0
26/11:30am 19.2 16.6 9.4 53 5.2 W 13 19 7 10 1021.9 1021.8 0.0
26/11:00am 19.6 17.9 10.0 54 5.1 WSW 9 13 5 7 1022.3 1022.2 0.0
26/10:30am 19.3 16.8 6.4 43 6.5 SE 9 15 5 8 1022.7 1022.6 0.0
26/10:00am 19.4 18.3 10.1 55 5.0 SW 6 11 3 6 1022.8 1022.7 0.0
26/09:30am 18.3 17.5 8.3 52 5.2 WSW 2 7 1 4 1023.1 1022.9 0.0
26/09:00am 16.8 14.2 6.3 50 5.1 SW 9 13 5 7 1023.1 1022.9 0.0
26/08:30am 16.5 14.7 5.2 47 5.4 W 4 9 2 5 1022.9 1022.8 0.0
26/08:00am 15.6 12.8 3.4 44 5.6 WSW 7 9 4 5 1022.8 1022.7 0.0
26/07:30am 15.7 13.4 2.5 41 5.9 WSW 4 9 2 5 1022.5 1022.4 0.0
26/07:00am 14.8 12.8 6.4 57 4.1 S 6 9 3 5 1022.3 1022.2 0.0
26/06:30am 13.8 11.2 9.3 74 2.3 SSW 13 17 7 9 1022.1 1022.0 0.0
26/06:00am 13.3 8.5 7.3 67 2.9 WSW 22 24 12 13 1021.8 1021.7 0.0
26/05:30am 13.7 8.9 9.0 73 2.4 W 24 26 13 14 1021.5 1021.4 0.0
26/05:00am 14.3 8.5 6.2 58 3.9 W 26 30 14 16 1021.3 1021.2 0.0
26/04:30am 13.7 8.6 7.5 66 3.1 W 24 28 13 15 1021.3 1021.2 0.0
26/04:00am 14.4 9.4 8.1 66 3.1 W 24 28 13 15 1021.3 1021.2 0.0
26/03:30am 14.6 10.5 10.0 74 2.4 W 22 24 12 13 1021.4 1021.3 0.0
26/03:00am 15.3 11.6 11.5 78 2.0 W 22 24 12 13 1021.4 1021.3 0.0
26/02:30am 15.4 12.3 12.2 81 1.8 W 20 24 11 13 1021.6 1021.5 0.0
26/02:00am 15.9 13.1 12.6 81 1.8 WNW 19 22 10 12 1021.8 1021.7 0.0
26/01:30am 15.6 12.4 12.0 79 2.0 WNW 20 22 11 12 1021.9 1021.8 0.0
26/01:00am 15.5 12.4 12.3 81 1.8 W 20 24 11 13 1022.1 1022.0 0.0
26/12:30am 15.8 12.8 12.5 81 1.8 W 20 24 11 13 1022.3 1022.2 0.0
26/12:00am 17.2 14.5 8.9 58 4.3 NW 13 17 7 9 1022.4 1022.3 0.0
 
Date/Time
EST
Temp
°C
App
Temp
°C
Dew
Point
°C
Rel
Hum
%
Delta-T
°C
Wind Press
QNH
hPa
Press
MSL
hPa
Rain since
9am
mm
Dir  Spd
km/h
Gust
km/h
Spd
kts
Gust
kts
25/11:30pm 17.9 15.1 8.5 54 4.9 NW 13 13 7 7 1022.5 1022.4 0.0
25/11:00pm 18.2 15.9 7.3 49 5.5 N 9 11 5 6 1022.6 1022.5 0.0
25/10:30pm 18.4 16.3 8.1 51 5.3 NNE 9 11 5 6 1022.5 1022.4 0.0
25/10:00pm 18.2 15.2 7.9 51 5.3 NE 13 15 7 8 1022.5 1022.4 0.0
25/09:30pm 18.0 14.3 8.0 52 5.1 ENE 17 19 9 10 1022.3 1022.2 0.0
25/09:00pm 18.0 14.2 9.1 56 4.6 ENE 19 20 10 11 1022.3 1022.2 0.0
25/08:30pm 17.8 13.8 8.4 54 4.9 E 19 20 10 11 1022.2 1022.1 0.0
25/08:00pm 17.7 13.8 9.3 58 4.4 E 20 26 11 14 1022.1 1022.0 0.0
25/07:30pm 17.7 13.8 9.3 58 4.4 E 20 24 11 13 1022.1 1022.0 0.0
25/07:00pm 17.4 13.8 9.8 61 4.0 E 19 24 10 13 1022.0 1021.9 0.0
25/06:30pm 17.6 13.8 9.2 58 4.4 E 19 20 10 11 1021.8 1021.7 0.0
25/06:00pm 17.5 13.9 8.4 55 4.7 E 17 19 9 10 1021.5 1021.4 0.0
25/05:30pm 17.8 13.9 7.0 49 5.4 E 17 20 9 11 1021.2 1021.1 0.0
25/05:00pm 18.1 14.5 6.6 47 5.7 ESE 15 17 8 9 1020.9 1020.8 0.0
25/04:30pm 18.7 15.6 7.2 47 5.8 ESE 13 15 7 8 1020.9 1020.8 0.0
25/04:00pm 18.8 15.5 6.6 45 6.1 ESE 13 15 7 8 1020.9 1020.8 0.0
25/03:30pm 19.3 16.1 6.8 44 6.3 E 13 15 7 8 1020.9 1020.8 0.0
25/03:00pm 19.4 16.1 6.2 42 6.6 ESE 13 15 7 8 1021.0 1020.9 0.0
25/02:30pm 20.2 17.6 6.2 40 7.0 ENE 9 13 5 7 1021.2 1021.1 0.0
25/02:00pm 21.0 18.3 5.8 37 7.6 ESE 9 11 5 6 1021.4 1021.3 0.0
25/01:30pm 21.0 18.3 5.4 36 7.8 SE 9 13 5 7 1021.6 1021.5 0.0
25/01:00pm 21.1 17.2 5.5 36 7.7 SE 15 17 8 9 1021.6 1021.5 0.0
25/12:30pm 21.2 17.2 5.1 35 8.0 SE 15 19 8 10 1022.1 1022.0 0.0
25/12:00pm 21.2 17.0 5.6 36 7.8 SE 17 20 9 11 1022.5 1022.4 0.0
25/11:30am 21.4 17.1 5.3 35 8.0 SE 17 20 9 11 1023.1 1022.9 0.0
25/11:00am 21.2 17.2 4.7 34 8.1 SE 15 19 8 10 1023.6 1023.4 0.0

Latest Capital City Observations: Canberra | Sydney | Melbourne | Brisbane | Adelaide | Perth | Hobart | Darwin

Other Formats:

Comma delimited format used in spreadsheet applications
http://www.bom.gov.au/fwo/IDQ60901/IDQ60901.94594.axf

JavaScript Object Notation format (JSON) in row-major order
http://www.bom.gov.au/fwo/IDQ60901/IDQ60901.94594.json